createdAt,value
2023-05-19T00:00:40.363Z,1.55
2023-05-19T00:04:53.208Z,1.67
2023-05-19T00:09:08.842Z,1.48
2023-05-19T00:13:24.716Z,1.48
2023-05-19T00:17:39.048Z,1.73
2023-05-19T00:21:51.552Z,1.70
2023-05-19T00:26:04.091Z,1.88
2023-05-19T00:30:16.768Z,1.38
2023-05-19T00:34:29.763Z,1.98
2023-05-19T00:38:42.253Z,1.70
2023-05-19T00:42:54.769Z,1.42
2023-05-19T00:47:08.036Z,1.83
2023-05-19T00:51:20.958Z,1.55
2023-05-19T00:55:35.462Z,1.13
2023-05-19T00:59:49.567Z,1.60
2023-05-19T01:04:02.972Z,1.08
2023-05-19T01:08:15.633Z,1.60
2023-05-19T01:12:28.359Z,1.83
2023-05-19T01:16:59.130Z,1.23
2023-05-19T01:21:45.105Z,1.55
2023-05-19T01:26:41.017Z,1.33
2023-05-19T01:30:59.915Z,1.42
2023-05-19T01:35:15.024Z,1.33
2023-05-19T01:39:29.328Z,1.42
2023-05-19T01:43:41.826Z,1.65
2023-05-19T01:47:58.200Z,1.10
2023-05-19T01:52:10.953Z,1.40
2023-05-19T01:56:40.115Z,1.65
2023-05-19T02:06:08.269Z,1.23
2023-05-19T02:10:28.909Z,1.48
2023-05-19T02:14:49.687Z,1.77
2023-05-19T02:19:02.311Z,1.90
2023-05-19T02:23:15.260Z,1.88
2023-05-19T02:27:27.810Z,1.50
2023-05-19T02:31:40.337Z,1.50
2023-05-19T02:36:01.163Z,1.67
2023-05-19T02:40:13.669Z,1.42
2023-05-19T02:44:26.255Z,1.30
2023-05-19T02:48:38.803Z,1.45
2023-05-19T02:52:53.351Z,1.92
2023-05-19T02:57:06.404Z,1.42
2023-05-19T03:01:29.001Z,1.42
2023-05-19T03:05:42.242Z,2.00
2023-05-19T03:09:54.845Z,1.17
2023-05-19T03:14:16.839Z,1.67
2023-05-19T03:18:31.379Z,2.15
2023-05-19T03:22:43.881Z,1.17
2023-05-19T03:26:56.602Z,1.25
2023-05-19T03:31:09.135Z,1.35
2023-05-19T03:35:22.437Z,1.63
2023-05-19T03:39:34.954Z,1.65
2023-05-19T03:43:47.494Z,1.90
2023-05-19T03:48:00.060Z,1.27
2023-05-19T03:52:13.747Z,1.70
2023-05-19T03:56:28.309Z,1.48
2023-05-19T04:00:41.515Z,1.90
2023-05-19T04:04:54.556Z,1.52
2023-05-19T04:09:16.629Z,1.85
2023-05-19T04:13:29.125Z,1.90
2023-05-19T04:17:41.972Z,1.80
2023-05-19T04:21:54.525Z,1.95
2023-05-19T04:26:07.700Z,1.80
2023-05-19T04:30:23.010Z,1.65
2023-05-19T04:34:36.385Z,1.73
2023-05-19T04:39:07.739Z,2.22
2023-05-19T04:43:20.256Z,1.33
2023-05-19T04:47:37.647Z,1.40
2023-05-19T04:51:51.858Z,1.70
2023-05-19T04:56:10.485Z,1.45
2023-05-19T05:00:22.952Z,1.67
2023-05-19T05:04:37.065Z,1.70
2023-05-19T05:08:50.227Z,1.40
2023-05-19T05:13:03.668Z,1.80
2023-05-19T05:17:16.965Z,1.80
2023-05-19T05:21:32.861Z,1.92
2023-05-19T05:25:46.331Z,1.50
2023-05-19T05:30:06.647Z,2.08
2023-05-19T05:34:29.338Z,2.10
2023-05-19T05:38:41.791Z,1.80
2023-05-19T05:42:56.569Z,1.95
2023-05-19T05:47:19.472Z,1.63
2023-05-19T05:51:33.756Z,2.13
2023-05-19T05:55:49.461Z,2.60
2023-05-19T06:00:18.502Z,2.42
2023-05-19T06:04:31.817Z,2.20
2023-05-19T06:08:44.330Z,2.05
2023-05-19T06:13:07.304Z,2.25
2023-05-19T06:17:29.875Z,1.80
2023-05-19T06:21:43.888Z,1.48
2023-05-19T06:26:06.803Z,1.23
2023-05-19T06:30:19.340Z,2.30
2023-05-19T06:34:32.040Z,2.42
2023-05-19T06:38:44.502Z,2.63
2023-05-19T06:42:57.196Z,2.58
2023-05-19T06:47:09.755Z,2.67
2023-05-19T06:51:32.435Z,2.60
2023-05-19T06:55:58.008Z,2.83
2023-05-19T07:00:15.282Z,2.28
2023-05-19T07:04:40.814Z,1.20
2023-05-19T07:08:53.310Z,2.63
2023-05-19T07:13:16.332Z,2.38
2023-05-19T07:17:28.849Z,3.03
2023-05-19T07:21:43.253Z,2.15
2023-05-19T07:25:58.724Z,1.92
2023-05-19T07:30:11.816Z,2.33
2023-05-19T07:34:25.982Z,2.20
2023-05-19T07:38:38.503Z,2.40
2023-05-19T07:42:51.498Z,2.35
2023-05-19T07:47:04.575Z,2.08
2023-05-19T07:51:17.095Z,1.85
2023-05-19T07:55:29.643Z,1.65
2023-05-19T07:59:42.159Z,1.88
2023-05-19T08:03:54.790Z,2.17
2023-05-19T08:08:08.617Z,2.00
2023-05-19T08:12:21.135Z,2.50
2023-05-19T08:16:33.598Z,2.35
2023-05-19T08:20:47.160Z,1.98
2023-05-19T08:24:59.611Z,2.15
2023-05-19T08:29:12.169Z,2.72
2023-05-19T08:33:25.060Z,2.10
2023-05-19T08:37:39.391Z,2.00
2023-05-19T08:41:52.325Z,1.80
2023-05-19T08:46:05.119Z,2.13
2023-05-19T08:50:22.413Z,2.10
2023-05-19T08:54:52.196Z,2.30
2023-05-19T08:59:07.378Z,2.15
2023-05-19T09:03:24.066Z,2.13
2023-05-19T09:07:38.655Z,2.10
2023-05-19T09:11:51.935Z,2.35
2023-05-19T09:16:05.235Z,2.30
2023-05-19T09:20:18.207Z,2.35
2023-05-19T09:24:34.533Z,2.20
2023-05-19T09:28:48.603Z,2.38
2023-05-19T09:33:01.743Z,2.72
2023-05-19T09:37:14.285Z,2.38
2023-05-19T09:41:28.235Z,2.00
2023-05-19T09:45:59.750Z,1.95
2023-05-19T09:50:14.858Z,1.83
2023-05-19T09:54:32.764Z,2.10
2023-05-19T09:58:46.312Z,2.03
2023-05-19T10:03:06.089Z,2.50
2023-05-19T10:07:20.444Z,2.45
2023-05-19T10:11:33.169Z,2.30
2023-05-19T10:15:59.293Z,2.22
2023-05-19T10:20:15.301Z,2.70
2023-05-19T10:24:27.958Z,2.40
2023-05-19T10:28:44.012Z,2.70
2023-05-19T10:33:11.957Z,2.83
2023-05-19T10:37:47.487Z,2.65
2023-05-19T10:42:18.139Z,2.88
2023-05-19T10:46:31.527Z,2.05
2023-05-19T10:50:48.514Z,2.53
2023-05-19T10:55:02.883Z,2.72
2023-05-19T10:59:38.618Z,2.67
2023-05-19T11:03:54.594Z,1.80
2023-05-19T11:08:12.367Z,2.85
2023-05-19T11:12:25.586Z,2.75
2023-05-19T11:16:38.291Z,2.70
2023-05-19T11:20:59.028Z,2.47
2023-05-19T11:25:11.601Z,2.63
2023-05-19T11:29:24.353Z,3.72
2023-05-19T11:33:37.202Z,3.00
2023-05-19T11:37:51.359Z,2.33
2023-05-19T11:42:03.864Z,3.67
2023-05-19T11:46:16.502Z,3.30
2023-05-19T11:50:29.506Z,3.15
2023-05-19T11:54:45.298Z,2.92
2023-05-19T11:58:57.883Z,3.38
2023-05-19T12:03:23.054Z,3.13
2023-05-19T12:07:35.886Z,3.33
2023-05-19T12:11:48.474Z,2.83
2023-05-19T12:16:11.128Z,3.38
2023-05-19T12:20:25.153Z,2.95
2023-05-19T12:24:38.658Z,3.25
2023-05-19T12:28:52.370Z,3.70
2023-05-19T12:33:05.276Z,3.33
2023-05-19T12:37:17.881Z,2.97
2023-05-19T12:41:30.425Z,2.80
2023-05-19T12:45:43.367Z,2.60
2023-05-19T12:50:10.343Z,2.97
2023-05-19T12:54:23.123Z,3.08
2023-05-19T12:58:46.801Z,3.30
2023-05-19T13:03:07.133Z,3.15
2023-05-19T13:07:21.682Z,3.33
2023-05-19T13:11:34.175Z,3.40
2023-05-19T13:15:49.514Z,3.78
2023-05-19T13:20:13.331Z,3.42
2023-05-19T13:24:25.922Z,3.22
2023-05-19T13:28:38.356Z,3.47
2023-05-19T13:32:53.157Z,3.33
2023-05-19T13:37:06.642Z,3.38
2023-05-19T13:41:27.597Z,3.30
2023-05-19T13:45:40.179Z,3.10
2023-05-19T13:49:53.210Z,3.08
2023-05-19T13:54:06.039Z,3.17
2023-05-19T13:58:18.818Z,3.25
2023-05-19T14:02:31.512Z,3.33
2023-05-19T14:06:44.156Z,3.17
2023-05-19T14:10:56.907Z,3.28
2023-05-19T14:15:19.670Z,2.85
2023-05-19T14:19:32.281Z,3.10
2023-05-19T14:23:45.054Z,2.70
2023-05-19T14:28:07.570Z,3.13
2023-05-19T14:32:20.086Z,2.83
2023-05-19T14:36:33.991Z,3.47
2023-05-19T14:40:46.574Z,2.80
2023-05-19T14:44:59.078Z,2.67
2023-05-19T14:49:18.423Z,2.88
2023-05-19T14:53:31.545Z,2.88
2023-05-19T14:57:44.005Z,2.67
2023-05-19T15:01:56.539Z,2.75
2023-05-19T15:06:19.048Z,3.08
2023-05-19T15:10:31.829Z,3.03
2023-05-19T15:14:54.499Z,2.85
2023-05-19T15:19:17.067Z,2.38
2023-05-19T15:23:33.430Z,2.42
2023-05-19T15:27:45.971Z,2.80
2023-05-19T15:31:59.298Z,2.60
2023-05-19T15:36:17.055Z,2.38
2023-05-19T15:40:29.580Z,2.83
2023-05-19T15:44:52.140Z,2.70
2023-05-19T15:49:06.137Z,2.60
2023-05-19T15:53:18.969Z,2.78
2023-05-19T15:57:31.584Z,2.67
2023-05-19T16:01:44.123Z,2.85
2023-05-19T16:05:57.489Z,2.78
2023-05-19T16:10:10.630Z,2.92
2023-05-19T16:14:23.975Z,2.53
2023-05-19T16:18:36.643Z,2.70
2023-05-19T16:22:49.125Z,2.55
2023-05-19T16:27:02.153Z,2.92
2023-05-19T16:31:14.783Z,2.65
2023-05-19T16:35:30.175Z,2.20
2023-05-19T16:39:44.521Z,2.40
2023-05-19T16:43:57.042Z,2.55
2023-05-19T16:48:09.669Z,2.28
2023-05-19T16:52:22.255Z,2.13
2023-05-19T16:56:44.840Z,2.50
2023-05-19T17:00:58.521Z,2.20
2023-05-19T17:05:12.338Z,1.98
2023-05-19T17:09:28.191Z,1.88
2023-05-19T17:13:42.644Z,2.30
2023-05-19T17:18:04.121Z,2.17
2023-05-19T17:22:28.211Z,2.08
2023-05-19T17:26:42.039Z,1.95
2023-05-19T17:30:54.533Z,2.00
2023-05-19T17:35:17.156Z,2.42
2023-05-19T17:39:29.667Z,2.25
2023-05-19T17:43:42.436Z,2.20
2023-05-19T17:48:05.692Z,2.10
2023-05-19T17:52:20.050Z,2.33
2023-05-19T17:56:35.142Z,2.22
2023-05-19T18:00:47.911Z,2.17
2023-05-19T18:05:01.112Z,2.33
2023-05-19T18:09:15.137Z,2.58
2023-05-19T18:13:27.661Z,2.45
2023-05-19T18:17:40.234Z,2.47
2023-05-19T18:21:52.776Z,2.40
2023-05-19T18:26:05.281Z,2.67
2023-05-19T18:30:17.853Z,2.50
2023-05-19T18:34:37.597Z,2.42
2023-05-19T18:38:51.087Z,2.20
2023-05-19T18:43:03.636Z,2.50
2023-05-19T18:47:16.133Z,2.58
2023-05-19T18:51:29.180Z,2.33
2023-05-19T18:55:41.713Z,2.38
2023-05-19T18:59:54.414Z,2.30
2023-05-19T19:04:07.039Z,2.35
2023-05-19T19:08:20.365Z,2.38
2023-05-19T19:12:32.856Z,2.17
2023-05-19T19:16:55.340Z,2.28
2023-05-19T19:21:07.917Z,2.10
2023-05-19T19:25:23.134Z,2.10
2023-05-19T19:29:36.207Z,2.20
2023-05-19T19:33:48.716Z,2.00
2023-05-19T19:38:01.461Z,2.55
2023-05-19T19:42:13.956Z,2.25
2023-05-19T19:46:26.639Z,2.10
2023-05-19T19:50:39.482Z,2.05
2023-05-19T19:54:52.212Z,1.90
2023-05-19T19:59:04.728Z,2.20
2023-05-19T20:03:28.538Z,2.28
2023-05-19T20:07:41.242Z,1.83
2023-05-19T20:11:53.756Z,1.55
2023-05-19T20:16:06.401Z,2.03
2023-05-19T20:20:18.905Z,1.73
2023-05-19T20:24:31.567Z,1.60
2023-05-19T20:28:44.165Z,2.38
2023-05-19T20:32:56.827Z,1.92
2023-05-19T20:37:09.355Z,1.88
2023-05-19T20:41:21.888Z,1.52
2023-05-19T20:45:34.663Z,1.58
2023-05-19T20:49:49.116Z,1.50
2023-05-19T20:54:01.850Z,1.33
2023-05-19T20:58:27.360Z,1.35
2023-05-19T21:02:39.874Z,1.50
2023-05-19T21:06:52.480Z,1.35
2023-05-19T21:11:05.000Z,1.20
2023-05-19T21:15:24.706Z,1.50
2023-05-19T21:19:37.860Z,1.40
2023-05-19T21:23:50.341Z,1.65
2023-05-19T21:28:02.894Z,1.33
2023-05-19T21:32:15.526Z,1.83
2023-05-19T21:36:28.401Z,1.50
2023-05-19T21:40:40.971Z,1.42
2023-05-19T21:44:53.492Z,1.17
2023-05-19T21:49:07.072Z,1.33
2023-05-19T21:53:21.489Z,1.73
2023-05-19T21:57:34.040Z,1.23
2023-05-19T22:01:46.540Z,1.50
2023-05-19T22:05:59.041Z,1.52
2023-05-19T22:10:11.725Z,1.40
2023-05-19T22:14:24.358Z,1.73
2023-05-19T22:18:36.881Z,1.40
2023-05-19T22:22:49.377Z,1.40
2023-05-19T22:27:02.313Z,1.55
2023-05-19T22:31:14.847Z,1.70
2023-05-19T22:35:27.492Z,1.50
2023-05-19T22:39:40.414Z,1.50
2023-05-19T22:44:02.956Z,1.60
2023-05-19T22:48:15.532Z,1.55
2023-05-19T22:52:28.098Z,1.60
2023-05-19T22:56:50.574Z,1.70
2023-05-19T23:01:03.043Z,1.35
2023-05-19T23:05:16.076Z,1.75
2023-05-19T23:09:28.528Z,1.60
2023-05-19T23:13:51.281Z,1.70
2023-05-19T23:18:09.467Z,1.52
2023-05-19T23:22:21.973Z,1.33
2023-05-19T23:26:45.141Z,1.30
2023-05-19T23:30:57.732Z,1.45
2023-05-19T23:35:21.309Z,1.95
2023-05-19T23:39:33.952Z,1.65
2023-05-19T23:43:56.527Z,1.48
2023-05-19T23:48:09.096Z,1.80
2023-05-19T23:52:21.826Z,1.48
2023-05-19T23:56:35.023Z,1.70
